createdAt,value
2019-06-20T00:00:06.879Z,19.94
2019-06-20T00:01:06.886Z,19.86
2019-06-20T00:02:25.825Z,19.78
2019-06-20T00:03:06.865Z,19.78
2019-06-20T00:04:06.608Z,19.86
2019-06-20T00:05:06.846Z,19.73
2019-06-20T00:06:06.937Z,19.71
2019-06-20T00:07:09.382Z,19.78
2019-06-20T00:08:06.839Z,19.66
2019-06-20T00:09:06.888Z,19.65
2019-06-20T00:10:06.877Z,19.63
2019-06-20T00:11:06.840Z,19.61
2019-06-20T00:12:06.595Z,19.54
2019-06-20T00:13:06.823Z,19.55
2019-06-20T00:14:06.829Z,19.54
2019-06-20T00:15:06.830Z,19.58
2019-06-20T00:16:06.566Z,19.48
2019-06-20T00:17:06.809Z,19.48
2019-06-20T00:18:06.559Z,19.55
2019-06-20T00:20:06.559Z,19.51
2019-06-20T00:21:08.061Z,19.46
2019-06-20T00:22:20.947Z,19.48
2019-06-20T00:23:10.539Z,19.46
2019-06-20T00:25:08.859Z,19.54
2019-06-20T00:26:06.772Z,19.48
2019-06-20T00:27:06.772Z,19.43
2019-06-20T00:28:06.768Z,19.54
2019-06-20T00:29:06.786Z,19.54
2019-06-20T00:30:08.050Z,19.43
2019-06-20T00:31:06.760Z,19.5
2019-06-20T00:32:06.763Z,19.48
2019-06-20T00:33:06.790Z,19.48
2019-06-20T00:34:06.740Z,19.54
2019-06-20T00:35:06.734Z,19.61
2019-06-20T00:36:06.495Z,19.62
2019-06-20T00:37:06.745Z,19.61
2019-06-20T00:38:06.486Z,19.59
2019-06-20T00:39:06.723Z,19.65
2019-06-20T00:40:06.479Z,19.66
2019-06-20T00:41:06.749Z,19.63
2019-06-20T00:42:06.721Z,19.62
2019-06-20T00:43:20.982Z,19.65
2019-06-20T00:44:06.505Z,19.65
2019-06-20T00:45:06.714Z,19.65
2019-06-20T00:47:06.694Z,19.68
2019-06-20T00:48:06.694Z,19.77
2019-06-20T00:49:06.703Z,19.74
2019-06-20T00:50:06.678Z,19.76
2019-06-20T00:51:07.947Z,19.86
2019-06-20T00:52:08.762Z,19.77
2019-06-20T00:53:06.427Z,19.86
2019-06-20T00:54:06.678Z,19.84
2019-06-20T00:55:06.691Z,19.78
2019-06-20T00:56:19.753Z,19.83
2019-06-20T00:57:06.653Z,19.78
2019-06-20T00:58:06.408Z,19.81
2019-06-20T00:59:06.657Z,19.77
2019-06-20T01:01:06.405Z,19.78
2019-06-20T01:02:06.721Z,19.87
2019-06-20T01:03:06.664Z,19.81
2019-06-20T01:05:06.630Z,19.73
2019-06-20T01:06:06.659Z,19.74
2019-06-20T01:07:06.618Z,19.77
2019-06-20T01:08:06.477Z,19.68
2019-06-20T01:09:09.149Z,19.71
2019-06-20T01:10:06.686Z,19.68
2019-06-20T01:11:06.138Z,19.76
2019-06-20T01:12:06.600Z,19.71
2019-06-20T01:13:06.351Z,19.65
2019-06-20T01:14:06.920Z,19.76
2019-06-20T01:15:06.674Z,19.73
2019-06-20T01:16:06.366Z,19.71
2019-06-20T01:17:06.346Z,19.63
2019-06-20T01:18:06.572Z,19.71
2019-06-20T01:19:06.329Z,19.66
2019-06-20T01:20:06.573Z,19.63
2019-06-20T01:21:06.634Z,19.61
2019-06-20T01:22:06.874Z,19.62
2019-06-20T01:23:06.555Z,19.61
2019-06-20T01:24:06.574Z,19.58
2019-06-20T01:25:06.698Z,19.56
2019-06-20T01:26:06.541Z,19.61
2019-06-20T01:27:06.306Z,19.51
2019-06-20T01:28:19.274Z,19.55
2019-06-20T01:29:06.580Z,19.51
2019-06-20T01:30:06.530Z,19.55
2019-06-20T01:31:06.541Z,19.54
2019-06-20T01:32:06.307Z,19.48
2019-06-20T01:33:06.535Z,19.44
2019-06-20T01:34:07.782Z,19.43
2019-06-20T01:35:06.101Z,19.44
2019-06-20T01:36:19.243Z,19.4
2019-06-20T01:37:06.519Z,19.31
2019-06-20T01:38:06.515Z,19.33
2019-06-20T01:39:19.273Z,19.36
2019-06-20T01:40:25.756Z,19.37
2019-06-20T01:41:10.640Z,19.36
2019-06-20T01:42:06.486Z,19.46
2019-06-20T01:43:06.481Z,19.37
2019-06-20T01:44:06.476Z,19.4
2019-06-20T01:45:06.488Z,19.4
2019-06-20T01:46:06.473Z,19.41
2019-06-20T01:47:06.467Z,19.31
2019-06-20T01:48:06.479Z,19.4
2019-06-20T01:49:06.218Z,19.36
2019-06-20T01:50:06.448Z,19.41
2019-06-20T01:51:06.453Z,19.26
2019-06-20T01:52:06.613Z,19.33
2019-06-20T01:53:06.442Z,19.36
2019-06-20T01:54:08.930Z,19.29
2019-06-20T01:55:06.515Z,19.31
2019-06-20T01:56:06.436Z,19.29
2019-06-20T01:57:06.505Z,19.21
2019-06-20T01:58:06.426Z,19.23
2019-06-20T01:59:06.448Z,19.37
2019-06-20T02:00:06.424Z,19.23
2019-06-20T02:01:06.170Z,19.32
2019-06-20T02:02:06.413Z,19.23
2019-06-20T02:04:06.400Z,19.25
2019-06-20T02:05:06.537Z,19.25
2019-06-20T02:06:19.149Z,19.26
2019-06-20T02:08:06.145Z,19.32
2019-06-20T02:09:06.407Z,19.28
2019-06-20T02:10:32.050Z,19.22
2019-06-20T02:11:06.373Z,19.28
2019-06-20T02:12:06.318Z,19.31
2019-06-20T02:13:06.692Z,19.31
2019-06-20T02:14:11.991Z,19.32
2019-06-20T02:15:06.456Z,19.25
2019-06-20T02:16:06.377Z,19.31
2019-06-20T02:17:06.107Z,19.28
2019-06-20T02:18:06.111Z,19.29
2019-06-20T02:19:06.098Z,19.33
2019-06-20T02:20:06.096Z,19.31
2019-06-20T02:21:06.399Z,19.37
2019-06-20T02:22:08.632Z,19.37
2019-06-20T02:23:06.449Z,19.43
2019-06-20T02:24:06.094Z,19.32
2019-06-20T02:25:06.566Z,19.44
2019-06-20T02:26:06.071Z,19.48
2019-06-20T02:27:06.309Z,19.46
2019-06-20T02:28:06.303Z,19.5
2019-06-20T02:29:06.298Z,19.43
2019-06-20T02:30:18.798Z,19.4
2019-06-20T02:31:08.838Z,19.41
2019-06-20T02:32:06.307Z,19.41
2019-06-20T02:33:06.290Z,19.33
2019-06-20T02:34:06.290Z,19.28
2019-06-20T02:35:06.288Z,19.29
2019-06-20T02:36:06.285Z,19.23
2019-06-20T02:37:06.294Z,19.14
2019-06-20T02:38:06.287Z,19.07
2019-06-20T02:39:06.279Z,19.07
2019-06-20T02:40:20.943Z,19.07
2019-06-20T02:42:06.280Z,19.06
2019-06-20T02:43:06.252Z,18.94
2019-06-20T02:44:06.245Z,18.95
2019-06-20T02:45:06.254Z,18.92
2019-06-20T02:46:06.242Z,18.94
2019-06-20T02:47:06.276Z,18.8
2019-06-20T02:48:06.264Z,18.84
2019-06-20T02:50:05.984Z,18.8
2019-06-20T02:51:06.001Z,18.76
2019-06-20T02:52:31.721Z,18.69
2019-06-20T02:53:05.964Z,18.69
2019-06-20T02:55:06.203Z,18.72
2019-06-20T02:56:06.189Z,18.73
2019-06-20T02:57:06.195Z,18.7
2019-06-20T02:58:05.950Z,18.66
2019-06-20T02:59:06.262Z,18.66
2019-06-20T03:00:07.271Z,18.66
2019-06-20T03:01:07.447Z,18.66
2019-06-20T03:02:06.199Z,18.62
2019-06-20T03:03:06.682Z,18.63
2019-06-20T03:04:06.177Z,18.69
2019-06-20T03:05:06.203Z,18.7
2019-06-20T03:06:18.630Z,18.63
2019-06-20T03:07:05.927Z,18.66
2019-06-20T03:08:05.940Z,18.7
2019-06-20T03:09:05.906Z,18.7
2019-06-20T03:10:06.141Z,18.76
2019-06-20T03:11:06.129Z,18.81
2019-06-20T03:12:06.143Z,18.81
2019-06-20T03:13:09.295Z,18.8
2019-06-20T03:14:06.123Z,18.82
2019-06-20T03:15:05.882Z,18.84
2019-06-20T03:16:06.111Z,18.92
2019-06-20T03:17:06.108Z,18.9
2019-06-20T03:18:06.113Z,19
2019-06-20T03:19:05.862Z,19.08
2019-06-20T03:20:05.614Z,19.04
2019-06-20T03:21:05.858Z,19.06
2019-06-20T03:22:06.190Z,19.16
2019-06-20T03:23:06.093Z,19.26
2019-06-20T03:24:06.121Z,19.37
2019-06-20T03:25:06.278Z,19.39
2019-06-20T03:26:06.075Z,19.58
2019-06-20T03:27:06.071Z,19.62
2019-06-20T03:28:05.832Z,19.63
2019-06-20T03:29:06.067Z,19.69
2019-06-20T03:30:06.059Z,19.8
2019-06-20T03:31:06.204Z,19.91
2019-06-20T03:32:06.077Z,19.91
2019-06-20T03:33:05.833Z,19.91
2019-06-20T03:34:06.069Z,20.02
2019-06-20T03:35:06.047Z,20.06
2019-06-20T03:36:06.067Z,20.08
2019-06-20T03:37:05.840Z,20.16
2019-06-20T03:38:05.800Z,20.05
2019-06-20T03:39:06.031Z,20.17
2019-06-20T03:40:06.118Z,20.29
2019-06-20T03:41:06.022Z,20.31
2019-06-20T03:42:06.022Z,20.39
2019-06-20T03:43:05.778Z,20.38
2019-06-20T03:44:06.080Z,20.41
2019-06-20T03:45:07.460Z,20.43
2019-06-20T03:46:06.003Z,20.54
2019-06-20T03:47:05.798Z,20.57
2019-06-20T03:48:05.761Z,20.61
2019-06-20T03:49:05.997Z,20.61
2019-06-20T03:50:06.006Z,20.67
2019-06-20T03:51:06.000Z,20.69
2019-06-20T03:52:05.993Z,20.73
2019-06-20T03:53:05.984Z,20.69
2019-06-20T03:54:05.987Z,20.82
2019-06-20T03:55:05.983Z,20.92
2019-06-20T03:56:05.748Z,21.03
2019-06-20T03:57:05.979Z,21.16
2019-06-20T03:58:05.984Z,21.35
2019-06-20T03:59:05.976Z,21.59
2019-06-20T04:00:05.979Z,21.79
2019-06-20T04:01:05.725Z,22.1
2019-06-20T04:02:05.971Z,22.37
2019-06-20T04:03:05.718Z,22.55
2019-06-20T04:04:05.966Z,22.79
2019-06-20T04:05:05.908Z,23.07
2019-06-20T04:06:05.967Z,23.35
2019-06-20T04:07:06.021Z,23.72
2019-06-20T04:08:05.701Z,23.98
2019-06-20T04:09:05.706Z,24.3
2019-06-20T04:10:05.956Z,24.62
2019-06-20T04:11:05.955Z,24.95
2019-06-20T04:12:05.949Z,25.38
2019-06-20T04:13:05.725Z,25.69
2019-06-20T04:14:05.958Z,25.99
2019-06-20T04:15:20.910Z,26.32
2019-06-20T04:16:05.988Z,26.58
2019-06-20T04:17:05.951Z,26.82
2019-06-20T04:18:06.076Z,27.03
2019-06-20T04:19:05.957Z,27.28
2019-06-20T04:20:05.963Z,27.55
2019-06-20T04:21:05.969Z,27.75
2019-06-20T04:22:06.022Z,28
2019-06-20T04:23:05.967Z,28.31
2019-06-20T04:24:05.737Z,28.51
2019-06-20T04:25:05.974Z,28.9
2019-06-20T04:26:05.985Z,29.09
2019-06-20T04:27:05.976Z,29.26
2019-06-20T04:28:05.493Z,29.51
2019-06-20T04:29:06.070Z,29.67
2019-06-20T04:30:05.999Z,29.8
2019-06-20T04:31:06.023Z,29.94
2019-06-20T04:32:06.227Z,29.94
2019-06-20T04:33:05.765Z,29.94
2019-06-20T04:34:05.819Z,30.08
2019-06-20T04:35:06.029Z,30.16
2019-06-20T04:36:05.858Z,30.24
2019-06-20T04:37:06.030Z,30.31
2019-06-20T04:38:05.566Z,30.34
2019-06-20T04:39:21.238Z,30.31
2019-06-20T04:40:06.145Z,30.47
2019-06-20T04:41:06.073Z,30.77
2019-06-20T04:42:06.070Z,30.94
2019-06-20T04:43:05.938Z,31.2
2019-06-20T04:44:06.170Z,31.29
2019-06-20T04:45:06.089Z,31.38
2019-06-20T04:46:06.088Z,31.66
2019-06-20T04:47:06.143Z,31.75
2019-06-20T04:48:05.615Z,32.03
2019-06-20T04:49:06.113Z,32.13
2019-06-20T04:50:06.155Z,32.29
2019-06-20T04:51:06.145Z,32.43
2019-06-20T04:52:05.892Z,32.4
2019-06-20T04:53:06.148Z,32.51
2019-06-20T04:54:06.161Z,32.5
2019-06-20T04:55:06.211Z,32.75
2019-06-20T04:56:10.275Z,33
2019-06-20T04:57:06.172Z,33.31
2019-06-20T04:58:06.211Z,33.49
2019-06-20T04:59:06.185Z,33.6
2019-06-20T05:00:06.229Z,33.78
2019-06-20T05:01:06.244Z,33.94
2019-06-20T05:02:06.301Z,34.17
2019-06-20T05:03:06.231Z,34.16
2019-06-20T05:04:05.993Z,34.34
2019-06-20T05:05:06.234Z,34.44
2019-06-20T05:06:06.251Z,34.5
2019-06-20T05:07:06.256Z,34.56
2019-06-20T05:08:05.779Z,34.81
2019-06-20T05:09:06.039Z,34.94
2019-06-20T05:11:07.629Z,35.33
2019-06-20T05:12:06.324Z,35.43
2019-06-20T05:16:08.885Z,36.08
2019-06-20T05:17:09.614Z,36.28
2019-06-20T05:26:06.212Z,36.65
2019-06-20T05:31:07.567Z,36.29
2019-06-20T05:33:09.049Z,36.27
2019-06-20T05:42:09.132Z,35.59
2019-06-20T05:43:09.539Z,35.45
2019-06-20T05:44:06.373Z,35.26
2019-06-20T05:46:14.461Z,34.99
2019-06-20T05:47:32.356Z,34.91
2019-06-20T05:49:07.675Z,34.8
2019-06-20T05:50:06.468Z,34.69
2019-06-20T05:52:06.692Z,34.8
2019-06-20T05:53:06.446Z,34.77
2019-06-20T05:56:06.715Z,35.15
2019-06-20T05:57:09.302Z,35.16
2019-06-20T05:58:06.251Z,35.26
2019-06-20T06:01:07.779Z,35.43
2019-06-20T06:02:06.874Z,35.37
2019-06-20T06:04:06.562Z,35.18
2019-06-20T06:06:06.824Z,35.1
2019-06-20T06:07:08.075Z,35.1
2019-06-20T06:08:06.574Z,35.09
2019-06-20T06:09:09.653Z,35.1
2019-06-20T06:11:09.257Z,35.16
2019-06-20T06:12:06.669Z,35.23
2019-06-20T06:13:07.654Z,35.47
2019-06-20T06:16:06.406Z,35.59
2019-06-20T06:17:07.033Z,35.59
2019-06-20T06:19:06.869Z,35.63
2019-06-20T06:24:06.742Z,34.94
2019-06-20T06:25:07.061Z,34.64
2019-06-20T06:26:06.967Z,34.28
2019-06-20T06:27:07.028Z,34.09
2019-06-20T06:28:07.030Z,33.82
2019-06-20T06:29:07.025Z,33.59
2019-06-20T06:30:07.035Z,33.26
2019-06-20T06:31:06.545Z,32.93
2019-06-20T06:32:06.558Z,32.67
2019-06-20T06:33:07.084Z,32.45
2019-06-20T06:34:06.808Z,32.28
2019-06-20T06:35:07.070Z,31.99
2019-06-20T06:36:06.837Z,31.72
2019-06-20T06:37:06.835Z,31.5
2019-06-20T06:38:07.103Z,31.38
2019-06-20T06:39:07.084Z,31.16
2019-06-20T06:40:07.099Z,30.91
2019-06-20T06:41:06.857Z,30.86
2019-06-20T06:42:06.624Z,30.53
2019-06-20T06:43:07.115Z,30.27
2019-06-20T06:44:10.638Z,30.02
2019-06-20T06:45:07.117Z,30
2019-06-20T06:46:07.134Z,29.67
2019-06-20T06:47:07.220Z,29.48
2019-06-20T06:48:07.146Z,29.23
2019-06-20T06:49:07.129Z,29.05
2019-06-20T06:50:07.147Z,28.78
2019-06-20T06:51:06.904Z,28.51
2019-06-20T06:52:07.162Z,28.25
2019-06-20T06:53:07.149Z,28.02
2019-06-20T06:54:07.155Z,27.88
2019-06-20T06:55:07.156Z,27.74
2019-06-20T06:56:07.168Z,27.65
2019-06-20T06:58:07.237Z,27.32
2019-06-20T06:59:06.940Z,27.13
2019-06-20T07:00:07.455Z,27.06
2019-06-20T07:01:10.201Z,26.92
2019-06-20T07:02:07.174Z,26.8
2019-06-20T07:03:07.188Z,26.69
2019-06-20T07:04:07.180Z,26.63
2019-06-20T07:05:07.184Z,26.43
2019-06-20T07:06:07.266Z,26.28
2019-06-20T07:07:07.218Z,26.2
2019-06-20T07:08:07.183Z,26.13
2019-06-20T07:09:06.946Z,26.1
2019-06-20T07:11:07.171Z,26.01
2019-06-20T07:12:07.222Z,25.95
2019-06-20T07:13:07.408Z,25.8
2019-06-20T07:14:07.404Z,25.85
2019-06-20T07:15:06.945Z,25.85
2019-06-20T07:16:07.197Z,25.79
2019-06-20T07:17:07.187Z,25.76
2019-06-20T07:18:07.194Z,25.76
2019-06-20T07:19:07.228Z,25.77
2019-06-20T07:20:07.225Z,25.75
2019-06-20T07:21:06.950Z,25.76
2019-06-20T07:22:06.948Z,25.75
2019-06-20T07:23:07.207Z,25.77
2019-06-20T07:24:07.244Z,25.75
2019-06-20T07:25:06.967Z,25.65
2019-06-20T07:26:07.226Z,25.7
2019-06-20T07:27:07.196Z,25.77
2019-06-20T07:28:07.216Z,25.7
2019-06-20T07:29:06.948Z,25.75
2019-06-20T07:30:07.207Z,25.75
2019-06-20T07:31:07.240Z,25.8
2019-06-20T07:32:07.227Z,25.82
2019-06-20T07:33:06.958Z,25.9
2019-06-20T07:34:06.954Z,25.94
2019-06-20T07:35:07.202Z,25.98
2019-06-20T07:36:07.244Z,26.01
2019-06-20T07:37:07.214Z,25.88
2019-06-20T07:38:07.128Z,25.77
2019-06-20T07:39:07.241Z,25.72
2019-06-20T07:40:07.412Z,25.64
2019-06-20T07:41:07.208Z,25.57
2019-06-20T07:42:06.964Z,25.51
2019-06-20T07:43:06.961Z,25.45
2019-06-20T07:44:07.241Z,25.4
2019-06-20T07:45:07.036Z,25.32
2019-06-20T07:46:08.253Z,25.27
2019-06-20T07:47:21.767Z,25.3
2019-06-20T07:48:19.953Z,25.33
2019-06-20T07:49:07.243Z,25.43
2019-06-20T07:50:07.255Z,25.27
2019-06-20T07:51:07.330Z,25.4
2019-06-20T07:52:06.973Z,25.38
2019-06-20T07:53:07.863Z,25.42
2019-06-20T07:54:07.220Z,25.46
2019-06-20T07:55:07.005Z,25.5
2019-06-20T07:56:09.462Z,25.54
2019-06-20T07:57:08.043Z,25.57
2019-06-20T07:58:06.976Z,25.64
2019-06-20T07:59:06.965Z,25.72
2019-06-20T08:00:07.306Z,25.88
2019-06-20T08:01:07.470Z,25.99
2019-06-20T08:02:07.230Z,26.17
2019-06-20T08:03:07.225Z,26.28
2019-06-20T08:04:07.551Z,26.45
2019-06-20T08:05:07.020Z,26.66
2019-06-20T08:06:07.256Z,26.84
2019-06-20T08:07:07.228Z,27.03
2019-06-20T08:08:07.397Z,27.28
2019-06-20T08:09:07.015Z,27.5
2019-06-20T08:10:07.854Z,27.9
2019-06-20T08:11:07.240Z,28.3
2019-06-20T08:12:06.992Z,28.95
2019-06-20T08:13:06.994Z,29.63
2019-06-20T08:14:07.016Z,30.02
2019-06-20T08:15:19.567Z,30.76
2019-06-20T08:16:08.737Z,30.99
2019-06-20T08:17:07.302Z,31.31
2019-06-20T08:18:07.314Z,31.56
2019-06-20T08:20:07.051Z,31.72
2019-06-20T08:21:07.312Z,31.78
2019-06-20T08:22:07.511Z,31.85
2019-06-20T08:23:07.325Z,31.92
2019-06-20T08:24:07.078Z,32
2019-06-20T08:25:08.114Z,32.06
2019-06-20T08:26:07.145Z,32.01
2019-06-20T08:27:09.196Z,32.04
2019-06-20T08:28:07.091Z,32.08
2019-06-20T08:29:23.968Z,32.15
2019-06-20T08:30:09.671Z,32.22
2019-06-20T08:31:07.430Z,32.28
2019-06-20T08:32:08.734Z,32.47
2019-06-20T08:33:14.838Z,32.7
2019-06-20T08:34:07.138Z,32.84
2019-06-20T08:35:06.890Z,33
2019-06-20T08:36:08.917Z,32.99
2019-06-20T08:37:07.160Z,32.69
2019-06-20T08:38:09.998Z,32.69
2019-06-20T08:39:08.647Z,32.63
2019-06-20T08:40:08.927Z,32.75
2019-06-20T08:41:09.038Z,32.92
2019-06-20T08:42:06.944Z,33.03
2019-06-20T08:43:08.877Z,33.12
2019-06-20T08:44:08.660Z,33.37
2019-06-20T08:45:08.647Z,33.59
2019-06-20T08:46:12.770Z,33.81
2019-06-20T08:47:08.615Z,33.91
2019-06-20T08:48:07.679Z,34.1
2019-06-20T08:49:08.405Z,34.22
2019-06-20T08:51:08.670Z,34.28
2019-06-20T08:53:08.440Z,34.27
2019-06-20T08:54:08.263Z,34.25
